sensor_id;sensor_type;location;lat;lon;timestamp;temperature;humidity
11126;DHT22;5617;54.046;10.676;2023-02-26T00:01:13;2.10;99.90
11126;DHT22;5617;54.046;10.676;2023-02-26T00:03:21;2.10;99.90
11126;DHT22;5617;54.046;10.676;2023-02-26T00:05:30;2.10;99.90
11126;DHT22;5617;54.046;10.676;2023-02-26T00:07:39;2.00;99.90
11126;DHT22;5617;54.046;10.676;2023-02-26T00:09:47;2.10;99.90
11126;DHT22;5617;54.046;10.676;2023-02-26T00:11:55;2.10;99.90
11126;DHT22;5617;54.046;10.676;2023-02-26T00:14:03;2.10;99.90
11126;DHT22;5617;54.046;10.676;2023-02-26T00:16:23;2.10;99.90
11126;DHT22;5617;54.046;10.676;2023-02-26T00:18:32;2.00;99.90
11126;DHT22;5617;54.046;10.676;2023-02-26T00:20:41;2.00;99.90
11126;DHT22;5617;54.046;10.676;2023-02-26T00:22:50;2.00;99.90
11126;DHT22;5617;54.046;10.676;2023-02-26T00:24:58;2.00;99.90
11126;DHT22;5617;54.046;10.676;2023-02-26T00:27:05;2.00;99.90
11126;DHT22;5617;54.046;10.676;2023-02-26T00:29:13;2.00;99.90
11126;DHT22;5617;54.046;10.676;2023-02-26T00:31:24;1.90;99.90
11126;DHT22;5617;54.046;10.676;2023-02-26T00:33:32;1.90;99.90
11126;DHT22;5617;54.046;10.676;2023-02-26T00:35:43;1.80;99.90
11126;DHT22;5617;54.046;10.676;2023-02-26T00:37:58;1.80;99.90
11126;DHT22;5617;54.046;10.676;2023-02-26T00:40:17;1.80;99.90
11126;DHT22;5617;54.046;10.676;2023-02-26T00:42:27;1.70;99.90
11126;DHT22;5617;54.046;10.676;2023-02-26T00:44:36;1.70;99.90
11126;DHT22;5617;54.046;10.676;2023-02-26T00:46:49;1.60;99.90
11126;DHT22;5617;54.046;10.676;2023-02-26T00:49:08;1.60;99.90
11126;DHT22;5617;54.046;10.676;2023-02-26T00:51:22;1.60;99.90
11126;DHT22;5617;54.046;10.676;2023-02-26T00:53:37;1.50;99.90
11126;DHT22;5617;54.046;10.676;2023-02-26T00:55:47;1.50;99.90
11126;DHT22;5617;54.046;10.676;2023-02-26T00:57:55;1.50;99.90
11126;DHT22;5617;54.046;10.676;2023-02-26T01:00:03;1.50;99.90
11126;DHT22;5617;54.046;10.676;2023-02-26T01:02:16;1.50;99.90
11126;DHT22;5617;54.046;10.676;2023-02-26T01:04:25;1.40;99.90
11126;DHT22;5617;54.046;10.676;2023-02-26T01:06:37;1.40;99.90
11126;DHT22;5617;54.046;10.676;2023-02-26T01:08:52;1.40;99.90
11126;DHT22;5617;54.046;10.676;2023-02-26T01:11:01;1.40;99.90
11126;DHT22;5617;54.046;10.676;2023-02-26T01:13:09;1.40;99.90
11126;DHT22;5617;54.046;10.676;2023-02-26T01:15:18;1.40;99.90
11126;DHT22;5617;54.046;10.676;2023-02-26T01:17:33;1.30;99.90
11126;DHT22;5617;54.046;10.676;2023-02-26T01:19:45;1.30;99.90
11126;DHT22;5617;54.046;10.676;2023-02-26T01:22:07;1.30;99.90
11126;DHT22;5617;54.046;10.676;2023-02-26T01:24:17;1.30;99.90
11126;DHT22;5617;54.046;10.676;2023-02-26T01:26:27;1.20;99.90
11126;DHT22;5617;54.046;10.676;2023-02-26T01:28:36;1.20;99.90
11126;DHT22;5617;54.046;10.676;2023-02-26T01:30:44;1.10;99.90
11126;DHT22;5617;54.046;10.676;2023-02-26T01:32:58;1.10;99.90
11126;DHT22;5617;54.046;10.676;2023-02-26T01:35:16;1.10;99.90
11126;DHT22;5617;54.046;10.676;2023-02-26T01:37:30;1.10;99.90
11126;DHT22;5617;54.046;10.676;2023-02-26T01:39:45;1.00;99.90
11126;DHT22;5617;54.046;10.676;2023-02-26T01:41:55;1.00;99.90
11126;DHT22;5617;54.046;10.676;2023-02-26T01:44:12;1.00;99.90
11126;DHT22;5617;54.046;10.676;2023-02-26T01:46:25;1.00;99.90
11126;DHT22;5617;54.046;10.676;2023-02-26T01:48:47;1.00;99.90
11126;DHT22;5617;54.046;10.676;2023-02-26T01:50:55;0.90;99.90
11126;DHT22;5617;54.046;10.676;2023-02-26T01:53:21;0.90;99.90
11126;DHT22;5617;54.046;10.676;2023-02-26T01:55:29;0.90;99.90
11126;DHT22;5617;54.046;10.676;2023-02-26T01:57:37;0.90;99.90
11126;DHT22;5617;54.046;10.676;2023-02-26T01:59:47;0.90;99.90
11126;DHT22;5617;54.046;10.676;2023-02-26T02:01:57;0.80;99.90
11126;DHT22;5617;54.046;10.676;2023-02-26T02:04:10;0.80;99.90
11126;DHT22;5617;54.046;10.676;2023-02-26T02:06:21;0.80;99.90
11126;DHT22;5617;54.046;10.676;2023-02-26T02:08:32;0.70;99.90
11126;DHT22;5617;54.046;10.676;2023-02-26T02:10:43;0.70;99.90
11126;DHT22;5617;54.046;10.676;2023-02-26T02:12:57;0.70;99.90
11126;DHT22;5617;54.046;10.676;2023-02-26T02:15:11;0.70;99.90
11126;DHT22;5617;54.046;10.676;2023-02-26T02:17:29;0.60;99.90
11126;DHT22;5617;54.046;10.676;2023-02-26T02:20:21;0.60;99.90
11126;DHT22;5617;54.046;10.676;2023-02-26T02:22:45;0.60;99.90
11126;DHT22;5617;54.046;10.676;2023-02-26T02:25:06;0.50;99.90
11126;DHT22;5617;54.046;10.676;2023-02-26T02:27:21;0.50;99.90
11126;DHT22;5617;54.046;10.676;2023-02-26T02:32:25;0.40;99.90
11126;DHT22;5617;54.046;10.676;2023-02-26T02:34:36;0.40;99.90
11126;DHT22;5617;54.046;10.676;2023-02-26T02:36:49;0.40;99.90
11126;DHT22;5617;54.046;10.676;2023-02-26T02:39:01;0.40;99.90
11126;DHT22;5617;54.046;10.676;2023-02-26T02:41:14;0.40;99.90
11126;DHT22;5617;54.046;10.676;2023-02-26T02:43:26;0.40;99.90
11126;DHT22;5617;54.046;10.676;2023-02-26T02:45:41;0.40;99.90
11126;DHT22;5617;54.046;10.676;2023-02-26T02:47:55;0.40;99.90
11126;DHT22;5617;54.046;10.676;2023-02-26T02:50:07;0.30;99.90
11126;DHT22;5617;54.046;10.676;2023-02-26T02:52:18;0.30;99.90
11126;DHT22;5617;54.046;10.676;2023-02-26T02:54:32;0.30;99.90
11126;DHT22;5617;54.046;10.676;2023-02-26T02:56:44;0.20;99.90
11126;DHT22;5617;54.046;10.676;2023-02-26T02:58:58;0.20;99.90
11126;DHT22;5617;54.046;10.676;2023-02-26T03:01:11;0.20;99.90
11126;DHT22;5617;54.046;10.676;2023-02-26T03:03:25;0.20;99.90
11126;DHT22;5617;54.046;10.676;2023-02-26T03:05:34;0.20;99.90
11126;DHT22;5617;54.046;10.676;2023-02-26T03:07:46;0.10;99.90
11126;DHT22;5617;54.046;10.676;2023-02-26T03:09:55;0.10;99.90
11126;DHT22;5617;54.046;10.676;2023-02-26T03:12:03;0.10;99.90
11126;DHT22;5617;54.046;10.676;2023-02-26T03:14:12;0.10;99.90
11126;DHT22;5617;54.046;10.676;2023-02-26T03:16:39;0.10;99.90
11126;DHT22;5617;54.046;10.676;2023-02-26T03:18:59;0.00;99.90
11126;DHT22;5617;54.046;10.676;2023-02-26T03:21:12;0.00;99.90
11126;DHT22;5617;54.046;10.676;2023-02-26T03:23:27;0.00;99.90
11126;DHT22;5617;54.046;10.676;2023-02-26T03:25:42;0.00;99.90
11126;DHT22;5617;54.046;10.676;2023-02-26T03:27:56;0.00;99.90
11126;DHT22;5617;54.046;10.676;2023-02-26T03:30:08;0.00;99.90
11126;DHT22;5617;54.046;10.676;2023-02-26T03:32:23;-0.10;99.90
11126;DHT22;5617;54.046;10.676;2023-02-26T03:34:38;0.00;99.90
11126;DHT22;5617;54.046;10.676;2023-02-26T03:36:50;-0.10;99.90
11126;DHT22;5617;54.046;10.676;2023-02-26T03:39:04;-0.10;99.90
11126;DHT22;5617;54.046;10.676;2023-02-26T03:41:16;0.00;99.90
11126;DHT22;5617;54.046;10.676;2023-02-26T03:43:33;-0.10;99.90
11126;DHT22;5617;54.046;10.676;2023-02-26T03:45:44;-0.10;99.90
11126;DHT22;5617;54.046;10.676;2023-02-26T03:47:54;-0.10;99.90
11126;DHT22;5617;54.046;10.676;2023-02-26T03:50:07;-0.10;99.90
11126;DHT22;5617;54.046;10.676;2023-02-26T03:52:16;-0.10;99.90
11126;DHT22;5617;54.046;10.676;2023-02-26T03:54:26;-0.10;99.90
11126;DHT22;5617;54.046;10.676;2023-02-26T03:56:40;-0.10;99.90
11126;DHT22;5617;54.046;10.676;2023-02-26T03:58:49;0.00;99.90
11126;DHT22;5617;54.046;10.676;2023-02-26T04:01:00;0.00;99.90
11126;DHT22;5617;54.046;10.676;2023-02-26T04:03:13;0.00;99.90
11126;DHT22;5617;54.046;10.676;2023-02-26T04:05:26;0.00;99.90
11126;DHT22;5617;54.046;10.676;2023-02-26T04:07:34;0.00;99.90
11126;DHT22;5617;54.046;10.676;2023-02-26T04:09:42;0.00;99.90
11126;DHT22;5617;54.046;10.676;2023-02-26T04:11:52;0.00;99.90
11126;DHT22;5617;54.046;10.676;2023-02-26T04:14:00;0.00;99.90
11126;DHT22;5617;54.046;10.676;2023-02-26T04:16:07;0.00;99.90
11126;DHT22;5617;54.046;10.676;2023-02-26T04:18:15;0.00;99.90
11126;DHT22;5617;54.046;10.676;2023-02-26T04:20:24;0.00;99.90
11126;DHT22;5617;54.046;10.676;2023-02-26T04:22:32;0.00;99.90
11126;DHT22;5617;54.046;10.676;2023-02-26T04:24:39;0.00;99.90
11126;DHT22;5617;54.046;10.676;2023-02-26T04:26:47;0.00;99.90
11126;DHT22;5617;54.046;10.676;2023-02-26T04:28:54;0.00;99.90
11126;DHT22;5617;54.046;10.676;2023-02-26T04:31:02;0.10;99.90
11126;DHT22;5617;54.046;10.676;2023-02-26T04:33:10;0.00;99.90
11126;DHT22;5617;54.046;10.676;2023-02-26T04:35:17;0.00;99.90
11126;DHT22;5617;54.046;10.676;2023-02-26T04:37:26;0.00;99.90
11126;DHT22;5617;54.046;10.676;2023-02-26T04:39:34;0.00;99.90
11126;DHT22;5617;54.046;10.676;2023-02-26T04:41:41;0.00;99.90
11126;DHT22;5617;54.046;10.676;2023-02-26T04:43:49;0.00;99.90
11126;DHT22;5617;54.046;10.676;2023-02-26T04:45:56;0.00;99.90
11126;DHT22;5617;54.046;10.676;2023-02-26T04:48:04;0.00;99.90
11126;DHT22;5617;54.046;10.676;2023-02-26T04:50:11;0.00;99.90
11126;DHT22;5617;54.046;10.676;2023-02-26T04:52:19;0.00;99.90
11126;DHT22;5617;54.046;10.676;2023-02-26T04:54:28;0.00;99.90
11126;DHT22;5617;54.046;10.676;2023-02-26T04:56:35;0.00;99.90
11126;DHT22;5617;54.046;10.676;2023-02-26T04:58:43;0.00;99.90
11126;DHT22;5617;54.046;10.676;2023-02-26T05:00:51;0.00;99.90
11126;DHT22;5617;54.046;10.676;2023-02-26T05:03:00;0.00;99.90
11126;DHT22;5617;54.046;10.676;2023-02-26T05:05:08;0.10;99.90
11126;DHT22;5617;54.046;10.676;2023-02-26T05:07:15;0.10;99.90
11126;DHT22;5617;54.046;10.676;2023-02-26T05:09:23;0.10;99.90
11126;DHT22;5617;54.046;10.676;2023-02-26T05:11:32;0.10;99.90
11126;DHT22;5617;54.046;10.676;2023-02-26T05:13:40;0.10;99.90
11126;DHT22;5617;54.046;10.676;2023-02-26T05:15:47;0.10;99.90
11126;DHT22;5617;54.046;10.676;2023-02-26T05:17:55;0.10;99.90
11126;DHT22;5617;54.046;10.676;2023-02-26T05:20:04;0.10;99.90
11126;DHT22;5617;54.046;10.676;2023-02-26T05:22:15;0.10;99.90
11126;DHT22;5617;54.046;10.676;2023-02-26T05:24:22;0.10;99.90
11126;DHT22;5617;54.046;10.676;2023-02-26T05:26:31;0.10;99.90
11126;DHT22;5617;54.046;10.676;2023-02-26T05:28:39;0.10;99.90
11126;DHT22;5617;54.046;10.676;2023-02-26T05:30:46;0.10;99.90
11126;DHT22;5617;54.046;10.676;2023-02-26T05:32:54;0.00;99.90
11126;DHT22;5617;54.046;10.676;2023-02-26T05:35:02;0.00;99.90
11126;DHT22;5617;54.046;10.676;2023-02-26T05:37:10;0.00;99.90
11126;DHT22;5617;54.046;10.676;2023-02-26T05:39:17;0.10;99.90
11126;DHT22;5617;54.046;10.676;2023-02-26T05:41:25;0.00;99.90
11126;DHT22;5617;54.046;10.676;2023-02-26T05:43:34;0.00;99.90
11126;DHT22;5617;54.046;10.676;2023-02-26T05:45:41;0.00;99.90
11126;DHT22;5617;54.046;10.676;2023-02-26T05:47:49;0.00;99.90
11126;DHT22;5617;54.046;10.676;2023-02-26T05:49:57;-0.10;99.90
11126;DHT22;5617;54.046;10.676;2023-02-26T05:52:04;-0.10;99.90
11126;DHT22;5617;54.046;10.676;2023-02-26T05:54:12;-0.10;99.90
11126;DHT22;5617;54.046;10.676;2023-02-26T05:56:20;0.00;99.90
11126;DHT22;5617;54.046;10.676;2023-02-26T05:58:27;-0.20;99.90
11126;DHT22;5617;54.046;10.676;2023-02-26T06:00:38;-0.10;99.90
11126;DHT22;5617;54.046;10.676;2023-02-26T06:02:45;-0.10;99.90
11126;DHT22;5617;54.046;10.676;2023-02-26T06:04:53;-0.20;99.90
11126;DHT22;5617;54.046;10.676;2023-02-26T06:07:01;-0.20;99.90
11126;DHT22;5617;54.046;10.676;2023-02-26T06:09:09;-0.20;99.90
11126;DHT22;5617;54.046;10.676;2023-02-26T06:11:16;-0.20;99.90
11126;DHT22;5617;54.046;10.676;2023-02-26T06:13:24;-0.20;99.90
11126;DHT22;5617;54.046;10.676;2023-02-26T06:15:31;-0.30;99.90
11126;DHT22;5617;54.046;10.676;2023-02-26T06:17:40;-0.30;99.90
11126;DHT22;5617;54.046;10.676;2023-02-26T06:19:49;-0.20;99.90
11126;DHT22;5617;54.046;10.676;2023-02-26T06:21:57;-0.30;99.90
11126;DHT22;5617;54.046;10.676;2023-02-26T06:24:06;-0.30;99.90
11126;DHT22;5617;54.046;10.676;2023-02-26T06:26:13;-0.40;99.90
11126;DHT22;5617;54.046;10.676;2023-02-26T06:28:22;-0.40;99.90
11126;DHT22;5617;54.046;10.676;2023-02-26T06:30:31;-0.40;99.90
11126;DHT22;5617;54.046;10.676;2023-02-26T06:32:40;-0.40;99.90
11126;DHT22;5617;54.046;10.676;2023-02-26T06:34:47;-0.40;99.90
11126;DHT22;5617;54.046;10.676;2023-02-26T06:36:55;-0.50;99.90
11126;DHT22;5617;54.046;10.676;2023-02-26T06:39:03;-0.30;99.90
11126;DHT22;5617;54.046;10.676;2023-02-26T06:41:11;-0.50;99.90
11126;DHT22;5617;54.046;10.676;2023-02-26T06:43:19;-0.40;99.90
11126;DHT22;5617;54.046;10.676;2023-02-26T06:45:26;-0.40;99.90
11126;DHT22;5617;54.046;10.676;2023-02-26T06:47:34;-0.40;99.90
11126;DHT22;5617;54.046;10.676;2023-02-26T06:49:43;-0.40;99.90
11126;DHT22;5617;54.046;10.676;2023-02-26T06:51:50;-0.40;99.90
11126;DHT22;5617;54.046;10.676;2023-02-26T06:53:58;-0.30;99.90
11126;DHT22;5617;54.046;10.676;2023-02-26T06:56:06;-0.30;99.90
11126;DHT22;5617;54.046;10.676;2023-02-26T06:58:14;-0.30;99.90
11126;DHT22;5617;54.046;10.676;2023-02-26T07:00:21;-0.30;99.90
11126;DHT22;5617;54.046;10.676;2023-02-26T07:02:29;-0.20;99.90
11126;DHT22;5617;54.046;10.676;2023-02-26T07:04:39;-0.20;99.90
11126;DHT22;5617;54.046;10.676;2023-02-26T07:06:48;-0.10;99.90
11126;DHT22;5617;54.046;10.676;2023-02-26T07:08:56;0.00;99.90
11126;DHT22;5617;54.046;10.676;2023-02-26T07:11:04;0.00;99.90
11126;DHT22;5617;54.046;10.676;2023-02-26T07:13:11;0.10;99.90
11126;DHT22;5617;54.046;10.676;2023-02-26T07:15:19;0.20;99.90
11126;DHT22;5617;54.046;10.676;2023-02-26T07:17:27;0.30;99.90
11126;DHT22;5617;54.046;10.676;2023-02-26T07:19:34;0.40;99.90
11126;DHT22;5617;54.046;10.676;2023-02-26T07:21:42;0.50;99.90
11126;DHT22;5617;54.046;10.676;2023-02-26T07:23:51;0.60;99.90
11126;DHT22;5617;54.046;10.676;2023-02-26T07:25:58;0.70;99.90
11126;DHT22;5617;54.046;10.676;2023-02-26T07:28:06;0.70;99.90
11126;DHT22;5617;54.046;10.676;2023-02-26T07:30:14;0.80;99.90
11126;DHT22;5617;54.046;10.676;2023-02-26T07:32:21;1.00;99.90
11126;DHT22;5617;54.046;10.676;2023-02-26T07:34:31;1.00;99.90
11126;DHT22;5617;54.046;10.676;2023-02-26T07:36:39;1.10;99.90
11126;DHT22;5617;54.046;10.676;2023-02-26T07:38:46;1.10;99.90
11126;DHT22;5617;54.046;10.676;2023-02-26T07:40:55;1.20;99.90
11126;DHT22;5617;54.046;10.676;2023-02-26T07:43:03;1.30;99.90
11126;DHT22;5617;54.046;10.676;2023-02-26T07:45:11;1.40;99.90
11126;DHT22;5617;54.046;10.676;2023-02-26T07:47:18;1.60;99.90
11126;DHT22;5617;54.046;10.676;2023-02-26T07:49:27;1.70;99.90
11126;DHT22;5617;54.046;10.676;2023-02-26T07:51:35;1.80;99.90
11126;DHT22;5617;54.046;10.676;2023-02-26T07:53:43;1.90;99.90
11126;DHT22;5617;54.046;10.676;2023-02-26T07:55:52;2.00;99.90
11126;DHT22;5617;54.046;10.676;2023-02-26T07:58:02;2.20;99.90
11126;DHT22;5617;54.046;10.676;2023-02-26T08:00:10;2.30;99.90
11126;DHT22;5617;54.046;10.676;2023-02-26T08:02:18;2.40;99.90
11126;DHT22;5617;54.046;10.676;2023-02-26T08:04:26;2.50;99.90
11126;DHT22;5617;54.046;10.676;2023-02-26T08:06:34;2.60;99.90
11126;DHT22;5617;54.046;10.676;2023-02-26T08:08:42;2.70;99.90
11126;DHT22;5617;54.046;10.676;2023-02-26T08:10:51;2.90;99.90
11126;DHT22;5617;54.046;10.676;2023-02-26T08:12:59;3.00;99.90
11126;DHT22;5617;54.046;10.676;2023-02-26T08:15:09;3.10;99.90
11126;DHT22;5617;54.046;10.676;2023-02-26T08:17:19;3.20;99.90
11126;DHT22;5617;54.046;10.676;2023-02-26T08:19:28;3.30;99.90
11126;DHT22;5617;54.046;10.676;2023-02-26T08:21:38;3.40;99.90
11126;DHT22;5617;54.046;10.676;2023-02-26T08:23:46;3.60;99.90
11126;DHT22;5617;54.046;10.676;2023-02-26T08:26:00;3.60;99.90
11126;DHT22;5617;54.046;10.676;2023-02-26T08:28:09;3.70;99.90
11126;DHT22;5617;54.046;10.676;2023-02-26T08:30:19;3.80;99.90
11126;DHT22;5617;54.046;10.676;2023-02-26T08:32:28;3.90;99.90
11126;DHT22;5617;54.046;10.676;2023-02-26T08:34:36;4.00;99.90
11126;DHT22;5617;54.046;10.676;2023-02-26T08:36:45;4.10;99.90
11126;DHT22;5617;54.046;10.676;2023-02-26T08:38:53;4.30;99.90
11126;DHT22;5617;54.046;10.676;2023-02-26T08:41:02;4.40;99.90
11126;DHT22;5617;54.046;10.676;2023-02-26T08:43:11;4.40;99.90
11126;DHT22;5617;54.046;10.676;2023-02-26T08:45:20;4.50;99.90
11126;DHT22;5617;54.046;10.676;2023-02-26T08:47:28;4.50;99.90
11126;DHT22;5617;54.046;10.676;2023-02-26T08:49:36;4.60;99.90
11126;DHT22;5617;54.046;10.676;2023-02-26T08:51:44;4.70;99.90
11126;DHT22;5617;54.046;10.676;2023-02-26T08:53:53;4.80;99.90
11126;DHT22;5617;54.046;10.676;2023-02-26T08:56:03;5.00;99.90
11126;DHT22;5617;54.046;10.676;2023-02-26T08:58:10;5.00;99.90
11126;DHT22;5617;54.046;10.676;2023-02-26T09:00:20;5.10;99.90
11126;DHT22;5617;54.046;10.676;2023-02-26T09:02:28;5.20;99.90
11126;DHT22;5617;54.046;10.676;2023-02-26T09:04:35;5.30;99.90
11126;DHT22;5617;54.046;10.676;2023-02-26T09:06:43;5.40;99.90
11126;DHT22;5617;54.046;10.676;2023-02-26T09:08:51;5.50;99.90
11126;DHT22;5617;54.046;10.676;2023-02-26T09:10:59;5.70;99.90
11126;DHT22;5617;54.046;10.676;2023-02-26T09:13:08;5.90;99.20
11126;DHT22;5617;54.046;10.676;2023-02-26T09:15:16;5.80;99.10
11126;DHT22;5617;54.046;10.676;2023-02-26T09:17:27;5.80;99.10
11126;DHT22;5617;54.046;10.676;2023-02-26T09:19:35;5.80;99.10
11126;DHT22;5617;54.046;10.676;2023-02-26T09:21:42;5.80;98.80
11126;DHT22;5617;54.046;10.676;2023-02-26T09:23:51;5.90;98.90
11126;DHT22;5617;54.046;10.676;2023-02-26T09:25:58;6.10;99.00
11126;DHT22;5617;54.046;10.676;2023-02-26T09:28:06;6.40;99.10
11126;DHT22;5617;54.046;10.676;2023-02-26T09:30:14;6.70;99.30
11126;DHT22;5617;54.046;10.676;2023-02-26T09:32:22;6.90;99.20
11126;DHT22;5617;54.046;10.676;2023-02-26T09:34:34;7.00;99.40
11126;DHT22;5617;54.046;10.676;2023-02-26T09:36:42;7.20;99.00
11126;DHT22;5617;54.046;10.676;2023-02-26T09:38:51;7.20;98.50
11126;DHT22;5617;54.046;10.676;2023-02-26T09:41:03;7.20;98.20
11126;DHT22;5617;54.046;10.676;2023-02-26T09:45:52;7.20;98.40
11126;DHT22;5617;54.046;10.676;2023-02-26T09:48:04;7.30;98.20
11126;DHT22;5617;54.046;10.676;2023-02-26T09:50:18;7.30;98.00
11126;DHT22;5617;54.046;10.676;2023-02-26T09:52:32;7.30;98.10
11126;DHT22;5617;54.046;10.676;2023-02-26T09:54:44;7.50;98.10
11126;DHT22;5617;54.046;10.676;2023-02-26T09:56:55;7.60;97.90
11126;DHT22;5617;54.046;10.676;2023-02-26T09:59:04;7.60;97.40
11126;DHT22;5617;54.046;10.676;2023-02-26T10:01:16;7.70;97.30
11126;DHT22;5617;54.046;10.676;2023-02-26T10:03:29;8.00;97.70
11126;DHT22;5617;54.046;10.676;2023-02-26T10:05:48;8.10;97.20
11126;DHT22;5617;54.046;10.676;2023-02-26T10:08:01;8.20;97.30
11126;DHT22;5617;54.046;10.676;2023-02-26T10:10:17;8.30;97.40
11126;DHT22;5617;54.046;10.676;2023-02-26T10:12:28;8.30;96.70
11126;DHT22;5617;54.046;10.676;2023-02-26T10:14:40;8.10;96.60
11126;DHT22;5617;54.046;10.676;2023-02-26T10:16:53;8.00;96.70
11126;DHT22;5617;54.046;10.676;2023-02-26T10:19:05;7.80;96.40
11126;DHT22;5617;54.046;10.676;2023-02-26T10:21:21;7.60;96.50
11126;DHT22;5617;54.046;10.676;2023-02-26T10:23:36;7.40;96.30
11126;DHT22;5617;54.046;10.676;2023-02-26T10:25:47;7.10;96.30
11126;DHT22;5617;54.046;10.676;2023-02-26T10:27:59;6.90;96.50
11126;DHT22;5617;54.046;10.676;2023-02-26T10:30:13;6.70;96.40
11126;DHT22;5617;54.046;10.676;2023-02-26T10:32:27;6.50;96.60
11126;DHT22;5617;54.046;10.676;2023-02-26T10:34:39;6.40;96.60
11126;DHT22;5617;54.046;10.676;2023-02-26T10:36:59;6.20;96.50
11126;DHT22;5617;54.046;10.676;2023-02-26T10:39:25;6.10;96.40
11126;DHT22;5617;54.046;10.676;2023-02-26T10:41:35;6.00;96.50
11126;DHT22;5617;54.046;10.676;2023-02-26T10:43:48;6.10;96.80
11126;DHT22;5617;54.046;10.676;2023-02-26T10:46:08;6.10;96.80
11126;DHT22;5617;54.046;10.676;2023-02-26T10:48:31;6.10;96.70
11126;DHT22;5617;54.046;10.676;2023-02-26T10:50:45;6.10;96.90
11126;DHT22;5617;54.046;10.676;2023-02-26T10:52:56;6.40;97.10
11126;DHT22;5617;54.046;10.676;2023-02-26T10:55:23;6.50;97.00
11126;DHT22;5617;54.046;10.676;2023-02-26T10:57:36;6.60;97.10
11126;DHT22;5617;54.046;10.676;2023-02-26T10:59:45;6.70;97.20
11126;DHT22;5617;54.046;10.676;2023-02-26T11:01:53;6.80;97.30
11126;DHT22;5617;54.046;10.676;2023-02-26T11:04:04;6.80;97.20
11126;DHT22;5617;54.046;10.676;2023-02-26T11:06:17;6.70;97.10
11126;DHT22;5617;54.046;10.676;2023-02-26T11:08:31;6.90;97.20
11126;DHT22;5617;54.046;10.676;2023-02-26T11:10:41;7.30;97.20
11126;DHT22;5617;54.046;10.676;2023-02-26T11:12:50;7.60;97.10
11126;DHT22;5617;54.046;10.676;2023-02-26T11:15:03;8.00;97.10
11126;DHT22;5617;54.046;10.676;2023-02-26T11:17:13;7.80;96.70
11126;DHT22;5617;54.046;10.676;2023-02-26T11:19:27;7.60;96.80
11126;DHT22;5617;54.046;10.676;2023-02-26T11:21:38;7.30;96.80
11126;DHT22;5617;54.046;10.676;2023-02-26T11:23:48;7.10;97.10
11126;DHT22;5617;54.046;10.676;2023-02-26T11:25:59;6.90;97.20
11126;DHT22;5617;54.046;10.676;2023-02-26T11:28:20;6.70;97.30
11126;DHT22;5617;54.046;10.676;2023-02-26T11:30:30;6.50;97.30
11126;DHT22;5617;54.046;10.676;2023-02-26T11:32:38;6.50;97.40
11126;DHT22;5617;54.046;10.676;2023-02-26T11:34:48;6.30;97.50
11126;DHT22;5617;54.046;10.676;2023-02-26T11:36:58;6.40;98.00
11126;DHT22;5617;54.046;10.676;2023-02-26T11:39:14;6.60;97.70
11126;DHT22;5617;54.046;10.676;2023-02-26T11:41:23;6.90;97.80
11126;DHT22;5617;54.046;10.676;2023-02-26T11:43:36;7.10;97.50
11126;DHT22;5617;54.046;10.676;2023-02-26T11:45:46;6.90;97.40
11126;DHT22;5617;54.046;10.676;2023-02-26T11:47:58;6.90;97.40
11126;DHT22;5617;54.046;10.676;2023-02-26T11:50:13;6.90;97.50
11126;DHT22;5617;54.046;10.676;2023-02-26T11:52:27;6.90;97.30
11126;DHT22;5617;54.046;10.676;2023-02-26T11:54:38;7.00;97.50
11126;DHT22;5617;54.046;10.676;2023-02-26T11:56:46;7.10;97.40
11126;DHT22;5617;54.046;10.676;2023-02-26T11:58:54;6.90;97.30
11126;DHT22;5617;54.046;10.676;2023-02-26T12:01:03;6.80;97.40
11126;DHT22;5617;54.046;10.676;2023-02-26T12:03:15;6.70;97.40
11126;DHT22;5617;54.046;10.676;2023-02-26T12:05:23;6.60;97.60
11126;DHT22;5617;54.046;10.676;2023-02-26T12:07:31;6.50;97.60
11126;DHT22;5617;54.046;10.676;2023-02-26T12:09:41;6.60;97.80
11126;DHT22;5617;54.046;10.676;2023-02-26T12:12:06;7.00;97.80
11126;DHT22;5617;54.046;10.676;2023-02-26T12:14:26;7.20;97.60
11126;DHT22;5617;54.046;10.676;2023-02-26T12:16:45;7.40;97.50
11126;DHT22;5617;54.046;10.676;2023-02-26T12:19:00;7.30;97.40
11126;DHT22;5617;54.046;10.676;2023-02-26T12:21:27;7.10;97.40
11126;DHT22;5617;54.046;10.676;2023-02-26T12:23:58;6.90;97.30
11126;DHT22;5617;54.046;10.676;2023-02-26T12:26:30;6.80;97.40
11126;DHT22;5617;54.046;10.676;2023-02-26T12:29:10;6.60;97.40
11126;DHT22;5617;54.046;10.676;2023-02-26T12:31:33;6.70;97.70
11126;DHT22;5617;54.046;10.676;2023-02-26T12:33:52;7.20;97.80
11126;DHT22;5617;54.046;10.676;2023-02-26T12:36:18;7.50;97.20
11126;DHT22;5617;54.046;10.676;2023-02-26T12:38:33;7.50;97.10
11126;DHT22;5617;54.046;10.676;2023-02-26T12:43:29;7.20;97.20
11126;DHT22;5617;54.046;10.676;2023-02-26T12:45:46;7.10;97.10
11126;DHT22;5617;54.046;10.676;2023-02-26T12:48:25;6.90;97.10
11126;DHT22;5617;54.046;10.676;2023-02-26T12:50:49;6.60;97.00
11126;DHT22;5617;54.046;10.676;2023-02-26T12:55:51;6.90;97.30
11126;DHT22;5617;54.046;10.676;2023-02-26T13:01:07;7.50;97.20
11126;DHT22;5617;54.046;10.676;2023-02-26T13:03:39;7.80;97.20
11126;DHT22;5617;54.046;10.676;2023-02-26T13:06:01;8.20;97.00
11126;DHT22;5617;54.046;10.676;2023-02-26T13:08:16;8.50;96.60
11126;DHT22;5617;54.046;10.676;2023-02-26T13:10:32;8.20;95.60
11126;DHT22;5617;54.046;10.676;2023-02-26T13:12:46;8.40;95.80
11126;DHT22;5617;54.046;10.676;2023-02-26T13:15:09;8.40;95.40
11126;DHT22;5617;54.046;10.676;2023-02-26T13:17:26;8.10;95.40
11126;DHT22;5617;54.046;10.676;2023-02-26T13:19:43;7.90;95.20
11126;DHT22;5617;54.046;10.676;2023-02-26T13:21:56;7.50;95.30
11126;DHT22;5617;54.046;10.676;2023-02-26T13:24:07;7.40;95.30
11126;DHT22;5617;54.046;10.676;2023-02-26T13:26:18;7.50;95.30
11126;DHT22;5617;54.046;10.676;2023-02-26T13:28:36;7.80;95.30
11126;DHT22;5617;54.046;10.676;2023-02-26T13:30:48;8.00;95.10
11126;DHT22;5617;54.046;10.676;2023-02-26T13:32:59;8.20;94.60
11126;DHT22;5617;54.046;10.676;2023-02-26T13:35:18;8.10;94.40
11126;DHT22;5617;54.046;10.676;2023-02-26T13:37:28;8.00;94.20
11126;DHT22;5617;54.046;10.676;2023-02-26T13:39:42;7.60;94.10
11126;DHT22;5617;54.046;10.676;2023-02-26T13:41:57;7.40;94.30
11126;DHT22;5617;54.046;10.676;2023-02-26T13:44:26;7.30;94.40
11126;DHT22;5617;54.046;10.676;2023-02-26T13:46:47;7.30;94.70
11126;DHT22;5617;54.046;10.676;2023-02-26T13:49:05;7.70;94.80
11126;DHT22;5617;54.046;10.676;2023-02-26T13:51:26;7.90;94.60
11126;DHT22;5617;54.046;10.676;2023-02-26T13:53:51;7.90;94.60
11126;DHT22;5617;54.046;10.676;2023-02-26T13:56:05;7.80;94.40
11126;DHT22;5617;54.046;10.676;2023-02-26T13:58:29;7.60;95.00
11126;DHT22;5617;54.046;10.676;2023-02-26T14:00:46;7.50;94.70
11126;DHT22;5617;54.046;10.676;2023-02-26T14:02:55;7.30;94.70
11126;DHT22;5617;54.046;10.676;2023-02-26T14:07:46;7.40;95.10
11126;DHT22;5617;54.046;10.676;2023-02-26T14:10:00;7.60;95.00
11126;DHT22;5617;54.046;10.676;2023-02-26T14:12:33;7.70;95.00
11126;DHT22;5617;54.046;10.676;2023-02-26T14:14:42;7.90;94.90
11126;DHT22;5617;54.046;10.676;2023-02-26T14:16:53;7.90;94.90
11126;DHT22;5617;54.046;10.676;2023-02-26T14:19:04;7.50;94.50
11126;DHT22;5617;54.046;10.676;2023-02-26T14:21:36;7.30;94.60